Time;durP1;ratioP1;P1;durP2;ratioP2;P2;SDS_P1;SDS_P2;PMS_P1;PMS_P2;Temp;Humidity;BMP_temperature;BMP_pressure;BME280_temperature;BME280_humidity;BME280_pressure;Samples;Min_cycle;Max_cycle;Signal;HPM_P1;HPM_P2
2021/12/14 00:00:43;;;;;;;11.43;8.30;;;8.80;99.90;;;;;;10403831;28;20231;-70
2021/12/14 00:05:45;;;;;;;10.53;8.03;;;8.80;99.90;;;;;;10390992;28;20274;-70
2021/12/14 00:16:01;;;;;;;12.23;9.03;;;8.80;99.90;;;;;;10402241;28;20435;-70
2021/12/14 00:21:24;;;;;;;11.63;9.00;;;8.80;99.90;;;;;;10399174;28;20315;-70
2021/12/14 00:26:24;;;;;;;10.13;8.90;;;8.80;99.90;;;;;;10399307;28;20275;-70
2021/12/14 00:31:26;;;;;;;11.57;8.70;;;8.80;99.90;;;;;;10402782;28;20771;-69
2021/12/14 00:36:27;;;;;;;11.83;8.57;;;8.80;99.90;;;;;;10395685;28;20230;-71
2021/12/14 00:41:31;;;;;;;11.30;8.07;;;8.80;99.90;;;;;;10397764;28;20226;-70
2021/12/14 00:46:35;;;;;;;10.83;9.17;;;8.80;99.90;;;;;;10404794;28;20216;-70
2021/12/14 00:51:36;;;;;;;11.87;8.73;;;8.80;99.90;;;;;;10388804;28;20239;-70
2021/12/14 00:56:36;;;;;;;11.47;9.13;;;8.80;99.90;;;;;;10397609;28;20658;-71
2021/12/14 01:01:42;;;;;;;12.00;9.20;;;8.80;99.90;;;;;;10405543;28;20646;-69
2021/12/14 01:06:45;;;;;;;11.03;8.87;;;8.80;99.90;;;;;;10407404;28;20591;-70
2021/12/14 01:11:50;;;;;;;10.57;8.60;;;8.80;99.90;;;;;;10405390;28;20624;-70
2021/12/14 01:17:08;;;;;;;11.97;8.63;;;8.80;99.90;;;;;;10395103;28;20245;-69
2021/12/14 01:27:23;;;;;;;13.73;8.60;;;8.70;99.90;;;;;;10409855;28;20228;-70
2021/12/14 01:32:28;;;;;;;13.23;9.20;;;8.70;99.90;;;;;;10405765;28;20220;-70
2021/12/14 01:37:39;;;;;;;10.20;8.77;;;8.70;99.90;;;;;;10394655;28;20224;-71
2021/12/14 01:42:41;;;;;;;12.17;9.83;;;8.70;99.90;;;;;;10395211;28;20231;-71
2021/12/14 01:47:49;;;;;;;14.07;9.97;;;8.70;99.90;;;;;;10404172;28;20224;-70
2021/12/14 01:52:50;;;;;;;13.17;9.90;;;8.70;99.90;;;;;;10390854;28;20765;-70
2021/12/14 01:57:54;;;;;;;12.97;9.53;;;8.70;99.90;;;;;;10395338;28;20225;-73
2021/12/14 02:02:55;;;;;;;12.77;9.90;;;8.70;99.90;;;;;;10402221;28;20264;-70
2021/12/14 02:07:59;;;;;;;12.63;10.00;;;8.80;99.90;;;;;;10395769;28;20285;-71
2021/12/14 02:13:00;;;;;;;12.23;10.00;;;8.70;99.90;;;;;;10390189;28;20244;-70
2021/12/14 02:18:07;;;;;;;13.30;9.90;;;8.70;99.90;;;;;;10401059;28;20689;-71
2021/12/14 02:23:09;;;;;;;13.70;10.27;;;8.70;99.90;;;;;;10386627;28;20226;-70
2021/12/14 02:28:17;;;;;;;11.37;9.90;;;8.70;99.90;;;;;;10400548;28;20674;-70
2021/12/14 02:33:24;;;;;;;14.73;11.63;;;8.70;99.90;;;;;;10389364;28;20292;-70
2021/12/14 02:38:26;;;;;;;13.23;11.43;;;8.70;99.90;;;;;;10394394;28;20268;-71
2021/12/14 02:43:35;;;;;;;12.80;10.67;;;8.70;99.90;;;;;;10389036;28;20230;-71
2021/12/14 02:48:39;;;;;;;13.10;10.77;;;8.70;99.90;;;;;;10389873;28;20216;-71
2021/12/14 02:53:41;;;;;;;13.57;11.40;;;8.70;99.90;;;;;;10390052;28;20229;-71
2021/12/14 02:58:44;;;;;;;15.87;12.23;;;8.70;99.90;;;;;;10381476;28;20222;-70
2021/12/14 03:03:45;;;;;;;20.37;14.50;;;8.60;99.90;;;;;;10407237;28;20218;-71
2021/12/14 03:09:07;;;;;;;22.33;15.87;;;8.60;99.90;;;;;;10396706;28;20211;-70
2021/12/14 03:14:08;;;;;;;22.63;15.83;;;8.60;99.90;;;;;;10396013;28;20228;-70
2021/12/14 03:19:09;;;;;;;23.60;15.10;;;8.50;99.90;;;;;;10414805;28;20740;-71
2021/12/14 03:24:14;;;;;;;19.67;14.27;;;8.50;99.90;;;;;;10392744;28;20217;-71
2021/12/14 03:29:21;;;;;;;18.20;12.53;;;8.50;99.90;;;;;;10411982;28;20227;-69
2021/12/14 03:34:33;;;;;;;20.30;14.63;;;8.50;99.90;;;;;;10410045;28;20618;-69
2021/12/14 03:39:38;;;;;;;18.37;14.43;;;8.50;99.90;;;;;;10390702;28;20230;-71
2021/12/14 03:44:44;;;;;;;14.87;12.90;;;8.50;99.90;;;;;;10395022;28;20215;-71
2021/12/14 03:49:55;;;;;;;14.30;12.13;;;8.60;99.90;;;;;;10398036;28;20252;-70
2021/12/14 03:54:57;;;;;;;16.87;13.17;;;8.50;99.90;;;;;;10384501;28;20235;-71
2021/12/14 03:59:58;;;;;;;17.07;13.90;;;8.50;99.90;;;;;;10395673;28;20260;-71
2021/12/14 04:05:06;;;;;;;18.43;14.97;;;8.50;99.90;;;;;;10382499;28;20218;-71
2021/12/14 04:10:31;;;;;;;16.70;13.60;;;8.50;99.90;;;;;;10397308;28;20306;-70
2021/12/14 04:15:33;;;;;;;20.07;16.60;;;8.50;99.90;;;;;;10401732;28;20719;-71
2021/12/14 04:20:37;;;;;;;21.07;16.63;;;8.50;99.90;;;;;;10403812;28;20221;-69
2021/12/14 04:25:40;;;;;;;21.87;17.30;;;8.50;99.90;;;;;;10395405;28;20711;-70
2021/12/14 04:30:43;;;;;;;23.00;18.30;;;8.50;99.90;;;;;;10397843;28;20244;-69
2021/12/14 04:35:45;;;;;;;24.57;18.27;;;8.50;99.90;;;;;;10403974;28;20237;-70
2021/12/14 04:56:47;;;;;;;27.50;20.30;;;8.40;99.90;;;;;;10395248;28;20273;-70
2021/12/14 05:01:48;;;;;;;25.90;19.83;;;8.40;99.90;;;;;;10389947;28;20288;-70
2021/12/14 05:06:57;;;;;;;26.70;20.13;;;8.40;99.90;;;;;;10407641;28;20228;-70
2021/12/14 05:12:11;;;;;;;27.27;20.97;;;8.40;99.90;;;;;;10409283;28;20303;-70
2021/12/14 05:17:21;;;;;;;27.10;20.27;;;8.40;99.90;;;;;;10395281;28;20221;-70
2021/12/14 05:22:26;;;;;;;26.27;21.23;;;8.40;99.90;;;;;;10385515;28;20229;-70
2021/12/14 05:27:35;;;;;;;29.37;20.13;;;8.30;99.90;;;;;;10382166;28;20224;-71
2021/12/14 05:32:38;;;;;;;26.47;20.30;;;8.30;99.90;;;;;;10405027;28;20213;-71
2021/12/14 05:37:46;;;;;;;24.97;20.00;;;8.30;99.90;;;;;;10406597;28;20246;-70
2021/12/14 05:48:43;;;;;;;29.83;21.03;;;8.30;99.90;;;;;;10393442;28;20633;-71
2021/12/14 05:53:45;;;;;;;26.47;19.70;;;8.30;99.90;;;;;;10385641;28;20232;-71
2021/12/14 05:58:47;;;;;;;27.23;20.80;;;8.30;99.90;;;;;;10389578;28;20245;-71
2021/12/14 06:09:49;;;;;;;26.97;20.43;;;8.30;99.90;;;;;;10403924;28;20889;-71
2021/12/14 06:14:56;;;;;;;26.60;20.50;;;8.30;99.90;;;;;;10405999;28;20455;-71
2021/12/14 06:20:20;;;;;;;25.10;19.23;;;8.20;99.90;;;;;;10383917;28;20267;-71
2021/12/14 06:25:27;;;;;;;23.63;18.57;;;8.20;99.90;;;;;;10384594;28;20322;-71
2021/12/14 06:30:31;;;;;;;24.60;18.33;;;8.20;99.90;;;;;;10375648;28;20222;-71
2021/12/14 06:35:47;;;;;;;37.93;26.27;;;8.20;99.90;;;;;;10389115;28;20222;-70
2021/12/14 06:41:16;;;;;;;27.70;21.50;;;8.20;99.90;;;;;;10382839;28;20642;-71
2021/12/14 06:46:20;;;;;;;26.00;19.50;;;8.20;99.90;;;;;;10398768;28;20230;-71
2021/12/14 06:51:42;;;;;;;27.20;19.63;;;8.20;99.90;;;;;;10402557;28;20221;-71
2021/12/14 06:56:48;;;;;;;25.13;18.70;;;8.20;99.90;;;;;;10409141;28;20225;-72
2021/12/14 07:01:58;;;;;;;23.80;17.90;;;8.20;99.90;;;;;;10402367;28;20227;-69
2021/12/14 07:07:06;;;;;;;23.27;18.13;;;8.20;99.90;;;;;;10408166;28;20226;-69
2021/12/14 07:12:15;;;;;;;26.53;18.27;;;8.30;99.90;;;;;;10411022;28;20741;-70
2021/12/14 07:17:27;;;;;;;24.10;17.47;;;8.30;99.90;;;;;;10400701;28;20262;-70
2021/12/14 07:22:43;;;;;;;24.93;18.47;;;8.30;99.90;;;;;;10403512;28;20226;-72
2021/12/14 07:28:11;;;;;;;25.17;18.20;;;8.20;99.90;;;;;;10396025;28;20253;-69
2021/12/14 07:33:28;;;;;;;25.10;19.30;;;8.20;99.90;;;;;;10386308;28;20305;-72
2021/12/14 07:38:41;;;;;;;25.17;18.30;;;8.20;99.90;;;;;;10408623;28;20536;-72
2021/12/14 07:43:55;;;;;;;25.33;18.77;;;8.20;99.90;;;;;;10389997;28;20221;-71
2021/12/14 07:49:01;;;;;;;25.60;18.80;;;8.10;99.90;;;;;;10391812;28;20305;-71
2021/12/14 07:54:11;;;;;;;26.37;19.70;;;8.20;99.90;;;;;;10390310;28;20218;-71
2021/12/14 07:59:21;;;;;;;25.40;19.97;;;8.20;99.90;;;;;;10389427;28;20223;-72
2021/12/14 08:04:33;;;;;;;26.87;19.97;;;8.20;99.90;;;;;;10390970;28;20237;-70
2021/12/14 08:09:49;;;;;;;26.87;19.10;;;8.30;99.90;;;;;;10388986;28;20280;-71
2021/12/14 08:15:06;;;;;;;26.00;18.47;;;8.30;99.90;;;;;;10404506;28;20227;-72
2021/12/14 08:20:14;;;;;;;23.97;18.50;;;8.30;99.90;;;;;;10414220;28;20258;-71
2021/12/14 08:25:24;;;;;;;24.87;18.43;;;8.30;99.90;;;;;;10389560;28;20188;-73
2021/12/14 08:30:24;;;;;;;25.07;19.13;;;8.30;99.90;;;;;;10390083;28;20214;-73
2021/12/14 08:35:26;;;;;;;23.73;19.20;;;8.30;99.90;;;;;;10388251;28;20213;-73
2021/12/14 08:40:37;;;;;;;25.90;20.50;;;8.30;99.90;;;;;;10401851;28;20235;-73
2021/12/14 08:45:46;;;;;;;26.70;20.90;;;8.30;99.90;;;;;;10397960;28;20219;-72
2021/12/14 08:50:56;;;;;;;28.40;21.20;;;8.30;99.90;;;;;;10395132;28;20266;-72
2021/12/14 08:55:59;;;;;;;29.20;20.77;;;8.30;99.90;;;;;;10394724;28;20225;-72
2021/12/14 09:01:12;;;;;;;28.27;21.97;;;8.40;99.90;;;;;;10390281;28;20229;-72
2021/12/14 09:06:17;;;;;;;29.23;21.13;;;8.40;99.90;;;;;;10396376;28;20289;-72
2021/12/14 09:11:22;;;;;;;28.10;21.17;;;8.40;99.90;;;;;;10397466;28;20254;-72
2021/12/14 09:16:28;;;;;;;34.67;24.10;;;8.40;99.90;;;;;;10387194;28;20592;-71
2021/12/14 09:21:36;;;;;;;36.50;23.93;;;8.40;99.90;;;;;;10407019;28;20280;-70
2021/12/14 09:26:41;;;;;;;30.93;22.90;;;8.40;99.90;;;;;;10393058;28;20267;-72
2021/12/14 09:31:43;;;;;;;33.80;24.27;;;8.40;99.90;;;;;;10393391;28;20858;-70
2021/12/14 09:36:48;;;;;;;34.40;23.13;;;8.40;99.90;;;;;;10394242;28;20220;-70
2021/12/14 09:41:53;;;;;;;28.70;22.10;;;8.40;99.90;;;;;;10396000;28;20218;-70
2021/12/14 09:46:57;;;;;;;32.60;22.77;;;8.40;99.90;;;;;;10389337;28;20218;-71
2021/12/14 09:52:08;;;;;;;29.93;22.10;;;8.50;99.90;;;;;;10390587;28;20418;-71
2021/12/14 09:57:23;;;;;;;32.20;22.40;;;8.50;99.90;;;;;;10396036;28;20867;-71
2021/12/14 10:02:34;;;;;;;33.47;23.40;;;8.50;99.90;;;;;;10390658;28;20388;-72
2021/12/14 10:07:35;;;;;;;29.43;21.63;;;8.70;99.90;;;;;;10398058;28;20220;-72
2021/12/14 10:12:49;;;;;;;30.10;23.07;;;8.70;99.90;;;;;;10395260;28;20227;-72
2021/12/14 10:17:51;;;;;;;33.43;23.67;;;8.80;99.90;;;;;;10389739;28;20214;-70
2021/12/14 10:22:52;;;;;;;32.80;23.87;;;8.80;99.90;;;;;;10387467;28;20275;-72
2021/12/14 10:27:54;;;;;;;33.77;24.07;;;8.70;99.90;;;;;;10410782;28;20217;-71
2021/12/14 10:32:56;;;;;;;34.53;23.53;;;8.60;99.90;;;;;;10386387;28;20234;-72
2021/12/14 10:38:10;;;;;;;34.70;25.03;;;8.50;99.90;;;;;;10386633;28;20213;-73
2021/12/14 10:43:16;;;;;;;37.73;23.67;;;8.60;99.90;;;;;;10385901;28;20238;-73
2021/12/14 10:48:20;;;;;;;35.03;24.87;;;8.60;99.90;;;;;;10384262;28;20227;-71
2021/12/14 10:53:22;;;;;;;34.60;22.57;;;8.60;99.90;;;;;;10390460;28;20281;-71
2021/12/14 10:58:24;;;;;;;32.53;23.03;;;8.50;99.90;;;;;;10391632;28;20349;-72
2021/12/14 11:03:34;;;;;;;32.60;23.27;;;8.50;99.90;;;;;;10391479;28;20234;-72
2021/12/14 11:08:58;;;;;;;32.00;22.37;;;8.50;99.90;;;;;;10388660;28;20225;-71
2021/12/14 11:14:02;;;;;;;34.90;23.77;;;8.40;99.90;;;;;;10395742;28;20221;-71
2021/12/14 11:19:05;;;;;;;36.33;24.00;;;8.40;99.90;;;;;;10397643;28;20291;-71
2021/12/14 11:24:05;;;;;;;30.53;22.17;;;8.50;99.90;;;;;;10394659;28;20252;-71
2021/12/14 11:29:11;;;;;;;35.57;22.37;;;8.60;99.90;;;;;;10388506;28;20207;-72
2021/12/14 11:34:26;;;;;;;33.97;22.70;;;8.70;99.90;;;;;;10390922;28;20314;-73
2021/12/14 11:39:30;;;;;;;34.50;22.87;;;8.70;99.90;;;;;;10409235;28;20647;-71
2021/12/14 11:44:36;;;;;;;34.50;22.63;;;8.70;99.90;;;;;;10402751;28;20216;-70
2021/12/14 11:50:10;;;;;;;39.47;24.27;;;8.60;99.90;;;;;;10390209;28;20218;-72
2021/12/14 11:55:43;;;;;;;32.83;22.23;;;8.70;99.90;;;;;;10400968;28;20317;-71
2021/12/14 12:00:49;;;;;;;32.83;21.90;;;8.70;99.90;;;;;;10392869;28;20250;-71
2021/12/14 12:05:59;;;;;;;37.17;24.30;;;8.60;99.90;;;;;;10399944;28;20301;-72
2021/12/14 12:11:05;;;;;;;37.20;23.90;;;8.60;99.90;;;;;;10401805;28;20857;-73
2021/12/14 12:16:19;;;;;;;33.90;24.03;;;8.70;99.90;;;;;;10403101;28;20238;-71
2021/12/14 12:21:28;;;;;;;39.47;24.03;;;8.60;99.90;;;;;;10402857;28;20285;-73
2021/12/14 12:26:30;;;;;;;42.07;26.80;;;8.70;99.90;;;;;;10400060;28;20311;-71
2021/12/14 12:31:38;;;;;;;39.63;24.73;;;8.60;99.90;;;;;;10399873;28;20230;-72
2021/12/14 12:36:42;;;;;;;38.00;24.50;;;8.60;99.90;;;;;;10386559;28;20606;-71
2021/12/14 12:41:48;;;;;;;38.57;24.30;;;8.50;99.90;;;;;;10388527;28;20256;-70
2021/12/14 12:47:00;;;;;;;38.83;23.63;;;8.60;99.90;;;;;;10399039;28;20249;-70
2021/12/14 12:52:16;;;;;;;35.80;24.57;;;8.70;99.90;;;;;;10402061;28;20219;-69
2021/12/14 12:57:28;;;;;;;37.60;23.77;;;8.70;99.90;;;;;;10399471;28;20242;-70
2021/12/14 13:02:33;;;;;;;39.33;24.23;;;8.60;99.90;;;;;;10392413;28;20227;-72
2021/12/14 13:07:43;;;;;;;37.50;24.60;;;8.60;99.90;;;;;;10408155;28;20230;-71
2021/12/14 13:12:52;;;;;;;37.50;24.83;;;8.60;99.90;;;;;;10394415;28;20224;-71
2021/12/14 13:18:15;;;;;;;37.50;24.67;;;8.50;99.90;;;;;;10385989;28;20225;-72
2021/12/14 13:23:19;;;;;;;41.30;26.10;;;8.50;99.90;;;;;;10366462;28;20255;-71
2021/12/14 13:28:37;;;;;;;38.87;25.47;;;8.50;99.90;;;;;;10404558;28;20218;-73
2021/12/14 13:33:37;;;;;;;43.80;27.30;;;8.40;99.90;;;;;;10390723;28;20228;-72
2021/12/14 13:38:38;;;;;;;43.80;26.90;;;8.30;99.90;;;;;;10395835;28;20225;-72
2021/12/14 13:43:40;;;;;;;42.93;26.07;;;8.30;99.90;;;;;;10394474;28;20237;-71
2021/12/14 13:48:45;;;;;;;47.10;27.27;;;8.20;99.90;;;;;;10407518;28;20224;-72
2021/12/14 13:53:48;;;;;;;44.67;27.97;;;8.10;99.90;;;;;;10389986;28;20727;-72
2021/12/14 13:58:51;;;;;;;47.03;27.47;;;8.10;99.90;;;;;;10399757;28;20268;-72
2021/12/14 14:03:57;;;;;;;44.87;27.43;;;8.10;99.90;;;;;;10395170;28;20220;-71
2021/12/14 14:09:07;;;;;;;48.33;28.10;;;8.10;99.90;;;;;;10390561;28;20646;-72
2021/12/14 14:14:21;;;;;;;46.70;28.23;;;8.10;99.90;;;;;;10399597;28;20221;-71
2021/12/14 14:19:44;;;;;;;42.80;26.77;;;8.10;99.90;;;;;;10404926;28;20226;-72
2021/12/14 14:24:54;;;;;;;41.70;25.80;;;8.10;99.90;;;;;;10391095;28;20248;-72
2021/12/14 14:29:55;;;;;;;47.53;29.10;;;8.00;99.90;;;;;;10394437;28;20296;-73
2021/12/14 14:34:58;;;;;;;45.37;26.20;;;8.00;99.90;;;;;;10396724;28;20856;-70
2021/12/14 14:40:10;;;;;;;46.53;26.87;;;8.00;99.90;;;;;;10405542;28;20260;-69
2021/12/14 14:45:19;;;;;;;40.37;26.40;;;8.10;99.90;;;;;;10395722;28;20293;-71
2021/12/14 14:50:32;;;;;;;41.37;26.17;;;8.10;99.90;;;;;;10398161;28;20577;-71
2021/12/14 14:55:38;;;;;;;45.20;25.93;;;8.00;99.90;;;;;;10398783;28;20309;-71
2021/12/14 15:00:50;;;;;;;42.13;25.47;;;8.00;99.90;;;;;;10394829;28;20277;-71
2021/12/14 15:06:00;;;;;;;48.03;26.93;;;8.00;99.90;;;;;;10387063;28;20243;-70
2021/12/14 15:11:06;;;;;;;42.63;24.93;;;8.00;99.90;;;;;;10393395;28;20223;-71
2021/12/14 15:16:36;;;;;;;44.77;25.20;;;8.00;99.90;;;;;;10404853;28;20237;-70
2021/12/14 15:21:51;;;;;;;46.20;26.93;;;7.90;99.90;;;;;;10394979;28;20257;-72
2021/12/14 15:27:12;;;;;;;41.17;25.70;;;7.90;99.90;;;;;;10390592;28;20221;-71
2021/12/14 15:32:16;;;;;;;39.63;24.97;;;7.90;99.90;;;;;;10379168;28;20318;-73
2021/12/14 15:37:39;;;;;;;44.57;25.60;;;7.90;99.90;;;;;;10399122;28;20223;-73
2021/12/14 15:48:47;;;;;;;43.77;25.47;;;7.90;99.90;;;;;;10655283;22;20230;-70
2021/12/14 15:53:58;;;;;;;40.07;24.53;;;7.80;99.90;;;;;;10396036;28;20313;-69
2021/12/14 15:59:12;;;;;;;39.97;24.47;;;7.80;99.90;;;;;;10392882;28;20751;-70
2021/12/14 16:04:21;;;;;;;43.53;25.43;;;7.80;99.90;;;;;;10394427;28;20626;-69
2021/12/14 16:09:30;;;;;;;42.30;24.40;;;7.80;99.90;;;;;;10404078;28;20261;-69
2021/12/14 16:19:53;;;;;;;40.20;23.00;;;7.80;99.90;;;;;;10394589;28;20226;-70
2021/12/14 16:25:45;;;;;;;33.63;21.57;;;7.80;99.90;;;;;;10398659;28;20231;-71
2021/12/14 16:30:56;;;;;;;37.17;22.30;;;7.70;99.90;;;;;;10394743;28;20324;-71
2021/12/14 16:36:05;;;;;;;33.33;21.23;;;7.70;99.90;;;;;;10390007;28;20222;-71
2021/12/14 16:41:12;;;;;;;32.67;19.97;;;7.80;99.90;;;;;;10400376;28;20619;-70
2021/12/14 16:46:29;;;;;;;31.53;21.10;;;7.80;99.90;;;;;;10398941;28;20236;-71
2021/12/14 16:51:30;;;;;;;30.50;19.20;;;7.80;99.90;;;;;;10393819;28;20296;-71
2021/12/14 16:56:33;;;;;;;29.10;19.40;;;7.80;99.90;;;;;;10394340;28;20240;-71
2021/12/14 17:01:34;;;;;;;27.33;17.93;;;7.80;99.90;;;;;;10395694;28;20242;-72
2021/12/14 17:06:39;;;;;;;27.30;18.77;;;7.80;99.90;;;;;;10410592;28;20231;-72
2021/12/14 17:11:45;;;;;;;27.23;17.00;;;7.80;99.90;;;;;;10406403;28;20224;-70
2021/12/14 17:16:46;;;;;;;24.80;16.83;;;7.80;99.90;;;;;;10399884;28;20251;-72
2021/12/14 17:21:52;;;;;;;26.83;21.10;;;7.80;99.90;;;;;;10386118;28;20513;-70
2021/12/14 17:27:02;;;;;;;26.00;18.70;;;7.80;99.90;;;;;;10395998;28;20234;-71
2021/12/14 17:32:16;;;;;;;20.70;15.30;;;7.90;99.90;;;;;;10394212;28;20632;-71
2021/12/14 17:37:22;;;;;;;25.43;15.37;;;7.90;99.90;;;;;;10394953;28;20610;-72
2021/12/14 17:42:27;;;;;;;25.20;16.67;;;7.80;99.90;;;;;;10401966;28;20769;-71
2021/12/14 17:47:36;;;;;;;26.80;15.73;;;7.80;99.90;;;;;;10405810;28;20226;-73
2021/12/14 17:52:41;;;;;;;27.03;15.97;;;7.80;99.90;;;;;;10389053;28;20631;-72
2021/12/14 17:57:43;;;;;;;23.73;16.33;;;7.80;99.90;;;;;;10407855;28;20217;-72
2021/12/14 18:02:48;;;;;;;25.50;16.20;;;7.80;99.90;;;;;;10405245;28;20315;-71
2021/12/14 18:07:54;;;;;;;23.37;15.60;;;7.80;99.90;;;;;;10405028;28;20225;-71
2021/12/14 18:12:59;;;;;;;23.07;16.40;;;7.80;99.90;;;;;;10400539;28;20217;-71
2021/12/14 18:23:32;;;;;;;25.70;16.13;;;7.80;99.90;;;;;;10404436;28;20682;-70
2021/12/14 18:34:33;;;;;;;23.93;16.93;;;7.70;99.90;;;;;;10665414;23;20230;-71
2021/12/14 18:39:54;;;;;;;23.43;16.17;;;7.70;99.90;;;;;;10408361;28;20236;-70
2021/12/14 18:45:00;;;;;;;26.13;16.90;;;7.70;99.90;;;;;;10406610;28;20224;-71
2021/12/14 18:50:01;;;;;;;24.47;16.13;;;7.70;99.90;;;;;;10405560;28;20307;-69
2021/12/14 18:55:07;;;;;;;24.93;17.43;;;7.70;99.90;;;;;;10395549;28;20354;-69
2021/12/14 19:00:12;;;;;;;25.13;17.27;;;7.70;99.90;;;;;;10406501;28;20233;-70
2021/12/14 19:05:26;;;;;;;24.37;17.40;;;7.70;99.90;;;;;;10403318;28;20246;-71
2021/12/14 19:10:31;;;;;;;26.47;17.33;;;7.70;99.90;;;;;;10403826;28;20313;-71
2021/12/14 19:15:36;;;;;;;26.77;18.13;;;7.70;99.90;;;;;;10399644;28;20216;-71
2021/12/14 19:20:54;;;;;;;24.30;16.90;;;7.80;99.90;;;;;;10401421;28;20233;-72
2021/12/14 19:25:56;;;;;;;26.03;17.83;;;7.80;99.90;;;;;;10405372;28;20224;-71
2021/12/14 19:31:01;;;;;;;28.23;18.17;;;7.80;99.90;;;;;;10405518;28;20241;-71
2021/12/14 19:36:03;;;;;;;27.30;18.30;;;7.80;99.90;;;;;;10406933;28;20228;-71
2021/12/14 19:41:08;;;;;;;27.83;16.93;;;7.80;99.90;;;;;;10405880;28;21037;-71
2021/12/14 19:46:14;;;;;;;25.47;17.70;;;7.80;99.90;;;;;;10404295;28;20248;-71
2021/12/14 19:51:26;;;;;;;28.07;18.30;;;7.80;99.90;;;;;;10405414;28;20317;-71
2021/12/14 19:56:27;;;;;;;26.70;18.73;;;7.80;99.90;;;;;;10403725;28;20329;-71
2021/12/14 20:01:31;;;;;;;26.23;18.57;;;7.80;99.90;;;;;;10409359;28;20613;-71
2021/12/14 20:06:35;;;;;;;24.63;17.57;;;7.80;99.90;;;;;;10405013;28;20218;-72
2021/12/14 20:11:40;;;;;;;26.40;17.20;;;7.80;99.90;;;;;;10407665;28;20212;-72
2021/12/14 20:16:45;;;;;;;27.90;18.33;;;7.70;99.90;;;;;;10404015;28;20699;-70
2021/12/14 20:21:52;;;;;;;30.87;18.73;;;7.70;99.90;;;;;;10406758;28;20603;-71
2021/12/14 20:26:55;;;;;;;29.70;19.33;;;7.70;99.90;;;;;;10412059;28;20225;-70
2021/12/14 20:32:17;;;;;;;29.27;18.73;;;7.60;99.90;;;;;;10407682;28;20714;-72
2021/12/14 20:37:22;;;;;;;29.20;19.27;;;7.60;99.90;;;;;;10395510;28;20723;-72
2021/12/14 20:43:13;;;;;;;27.37;17.77;;;7.60;99.90;;;;;;10400173;28;20238;-73
2021/12/14 20:47:57;;;;;;;34.50;21.47;;;7.60;99.90;;;;;;10393586;28;20308;-73
2021/12/14 20:53:02;;;;;;;36.53;22.10;;;7.50;99.90;;;;;;10410785;28;20308;-72
2021/12/14 20:58:07;;;;;;;33.33;20.90;;;7.40;99.90;;;;;;10388933;28;20256;-71
2021/12/14 21:03:08;;;;;;;31.57;20.70;;;7.30;99.90;;;;;;10402604;28;20798;-72
2021/12/14 21:08:14;;;;;;;37.83;21.57;;;7.30;99.90;;;;;;10408223;28;20239;-71
2021/12/14 21:13:36;;;;;;;33.60;21.60;;;7.30;99.90;;;;;;10407691;28;20271;-70
2021/12/14 21:18:36;;;;;;;32.77;22.10;;;7.20;99.90;;;;;;10406251;28;20665;-73
2021/12/14 21:23:37;;;;;;;34.50;22.30;;;7.10;99.90;;;;;;10404933;28;20228;-71
2021/12/14 21:28:40;;;;;;;37.90;22.93;;;7.10;99.90;;;;;;10398216;28;20232;-72
2021/12/14 21:33:49;;;;;;;35.43;22.47;;;7.00;99.90;;;;;;10408377;28;20224;-71
2021/12/14 21:39:00;;;;;;;34.53;21.73;;;7.10;99.90;;;;;;10405265;28;20262;-72
2021/12/14 21:49:09;;;;;;;36.50;22.67;;;7.10;99.90;;;;;;10399480;28;20227;-71
2021/12/14 21:54:10;;;;;;;36.37;22.43;;;7.10;99.90;;;;;;10397033;28;20270;-72
2021/12/14 21:59:11;;;;;;;36.80;22.27;;;7.00;99.90;;;;;;10397609;28;20217;-70
2021/12/14 22:04:12;;;;;;;35.33;21.90;;;7.00;99.90;;;;;;10409172;28;20294;-72
2021/12/14 22:09:13;;;;;;;36.57;23.77;;;7.00;99.90;;;;;;10397200;28;20224;-71
2021/12/14 22:14:17;;;;;;;35.13;22.47;;;7.00;99.90;;;;;;10400839;28;20220;-72
2021/12/14 22:19:18;;;;;;;43.87;25.60;;;7.00;99.90;;;;;;10397949;28;20226;-72
2021/12/14 22:24:18;;;;;;;43.90;24.60;;;7.00;99.90;;;;;;10397088;28;20342;-71
2021/12/14 22:29:19;;;;;;;42.57;25.53;;;7.00;99.90;;;;;;10400455;28;20648;-71
2021/12/14 22:34:20;;;;;;;38.37;23.63;;;7.00;99.90;;;;;;10392958;28;20255;-71
2021/12/14 22:39:22;;;;;;;40.63;25.17;;;7.00;99.90;;;;;;10386962;28;20212;-71
2021/12/14 22:44:33;;;;;;;38.27;22.97;;;6.90;99.90;;;;;;10385366;28;20319;-71
2021/12/14 22:49:35;;;;;;;39.33;23.67;;;6.90;99.90;;;;;;10398538;28;20217;-71
2021/12/14 22:54:40;;;;;;;36.17;23.10;;;6.80;99.90;;;;;;10400601;28;20632;-71
2021/12/14 22:59:40;;;;;;;39.53;24.73;;;6.80;99.90;;;;;;10397523;28;20248;-71
2021/12/14 23:04:41;;;;;;;38.70;23.83;;;6.70;99.90;;;;;;10388401;28;20221;-72
2021/12/14 23:09:51;;;;;;;36.83;24.70;;;6.80;99.90;;;;;;10403999;28;20278;-72
2021/12/14 23:14:58;;;;;;;38.13;22.70;;;6.80;99.90;;;;;;10389431;28;20239;-72
2021/12/14 23:20:06;;;;;;;39.03;24.10;;;6.90;99.90;;;;;;10392973;28;20242;-71
2021/12/14 23:25:12;;;;;;;41.60;24.37;;;7.00;99.90;;;;;;10391815;28;20252;-71
2021/12/14 23:30:36;;;;;;;40.00;23.63;;;7.00;99.90;;;;;;10399866;28;20189;-70
2021/12/14 23:35:41;;;;;;;42.77;23.73;;;7.00;99.90;;;;;;10405482;28;20231;-70
2021/12/14 23:40:43;;;;;;;47.13;24.17;;;7.00;99.90;;;;;;10397831;28;20288;-72
2021/12/14 23:45:47;;;;;;;38.57;22.90;;;7.00;99.90;;;;;;10411092;28;20220;-72
2021/12/14 23:50:49;;;;;;;67.77;22.53;;;7.00;99.90;;;;;;10411880;28;20220;-71
2021/12/14 23:55:49;;;;;;;63.23;20.97;;;6.90;99.90;;;;;;10403106;28;20217;-72
